Hovedside
METAR-TAF:

METAR-TAF

Lufthavner :

Marigot, Dominica

breddegrad: 15-32N, lengdegrad: 061-18W, høyde over havet: 13 m

Gjeldene værobservasjon

Denne rapporten ble laget for 36 minutter siden, klokken 15:00 UTC
Vind 8 kt fra Øst-sørøst
Temperatur 31°C
Luftfuktighet 79%
Trykk 1017 hPa
Sikt 10 km eller mer
Brutte skyer i en høyde av 1600 ft
lette regnbyger,

METAR: TDPD 191500Z COR 12008KT 9999 -SHRA BKN016 31/27 Q1017

Tid: 11:36 (15:36 UTC)

Varsel

Denne rapporten ble laget for 4 timer og 36 minutter siden, klokken 11:00 UTC
Varsel gyldig fra 19. klokken 12 UTC til 20. klokken 12 UTC
Vind 4 kt fra Vest
Sikt 10 km eller mer
Spredte skyer i en høyde av 1800 ft

TAF: TDPD 191100Z 1912/2012 28004KT 9999 SCT018

Værobservasjoner og værvarsel for over 4000 flyplasser (METAR- og TAF-rapporter).

Tilgjengelige stasjoner er representert av de røde og gule prikkene på kartet.

Hold musepekeren over prikken for å se navnet på stasjonen.

Klikk så for å se værobservasjoner og -varsler.

For å forandre kartet kan du klikke på den grønne knappen med svart kryss for å zoome inn, på den grønne knappen med strek for å zoome ut, eller på de grønne pilene for å se tilstøtende kart.


METAR-TAF: